Time;durP1;ratioP1;P1;durP2;ratioP2;P2;SDS_P1;SDS_P2;PMS_P1;PMS_P2;Temp;Humidity;BMP_temperature;BMP_pressure;BME280_temperature;BME280_humidity;BME280_pressure;Samples;Min_cycle;Max_cycle;Signal;HPM_P1;HPM_P2
2023/06/24 00:02:24;;;;;;;9.20;7.25;;;16.70;99.90;;;;;;5010403;28;20128;-72
2023/06/24 00:04:52;;;;;;;11.23;7.53;;;16.70;99.90;;;;;;5010714;28;20494;-71
2023/06/24 00:07:21;;;;;;;11.55;7.70;;;16.60;99.90;;;;;;5010085;28;20048;-71
2023/06/24 00:09:47;;;;;;;9.52;6.70;;;16.60;99.90;;;;;;5009695;28;20454;-71
2023/06/24 00:12:19;;;;;;;9.07;6.90;;;16.60;99.90;;;;;;5011032;28;20085;-74
2023/06/24 00:14:51;;;;;;;10.07;7.15;;;16.60;99.90;;;;;;5010317;28;20038;-74
2023/06/24 00:17:17;;;;;;;10.27;7.22;;;16.50;99.90;;;;;;5012139;28;20485;-73
2023/06/24 00:19:44;;;;;;;10.98;7.70;;;16.50;99.90;;;;;;5012477;28;20034;-73
2023/06/24 00:22:29;;;;;;;11.82;8.45;;;16.50;99.90;;;;;;5011297;28;20066;-73
2023/06/24 00:24:56;;;;;;;9.03;7.27;;;16.50;99.90;;;;;;5044082;28;20456;-73
2023/06/24 00:27:25;;;;;;;12.48;8.13;;;16.50;99.90;;;;;;5012730;28;20768;-74
2023/06/24 00:29:50;;;;;;;11.50;7.70;;;16.50;99.90;;;;;;5010968;28;20454;-73
2023/06/24 00:32:16;;;;;;;10.40;8.15;;;16.40;99.90;;;;;;5013058;28;20076;-73
2023/06/24 00:34:43;;;;;;;10.93;8.65;;;16.40;99.90;;;;;;5012331;28;20049;-74
2023/06/24 00:37:09;;;;;;;10.73;8.35;;;16.40;99.90;;;;;;5011868;28;20129;-73
2023/06/24 00:39:35;;;;;;;11.25;8.15;;;16.30;99.90;;;;;;5011034;28;20050;-74
2023/06/24 00:42:01;;;;;;;9.48;7.15;;;16.30;99.90;;;;;;5013189;28;20048;-74
2023/06/24 00:44:30;;;;;;;13.13;8.05;;;16.30;99.90;;;;;;5012589;28;20045;-74
2023/06/24 00:46:56;;;;;;;10.43;7.30;;;16.30;99.90;;;;;;5012389;28;20501;-74
2023/06/24 00:49:21;;;;;;;11.02;7.50;;;16.30;99.90;;;;;;5011771;28;20046;-73
2023/06/24 00:51:50;;;;;;;11.77;8.48;;;16.30;99.90;;;;;;5009967;28;20433;-72
2023/06/24 00:54:16;;;;;;;11.02;7.38;;;16.30;99.90;;;;;;5010614;28;20529;-72
2023/06/24 00:56:43;;;;;;;10.82;7.78;;;16.20;99.90;;;;;;5009400;28;20050;-72
2023/06/24 00:59:12;;;;;;;10.02;7.28;;;16.20;99.90;;;;;;5008939;28;20054;-72
2023/06/24 01:01:39;;;;;;;9.63;7.45;;;16.20;99.90;;;;;;5009027;28;20058;-72
2023/06/24 01:04:08;;;;;;;11.70;6.93;;;16.20;99.90;;;;;;5008963;28;20054;-73
2023/06/24 01:06:36;;;;;;;10.25;7.57;;;16.10;99.90;;;;;;5008604;28;20482;-73
2023/06/24 01:09:04;;;;;;;9.85;7.43;;;16.10;99.90;;;;;;5009233;28;20046;-73
2023/06/24 01:11:31;;;;;;;11.25;7.70;;;16.10;99.90;;;;;;5009304;28;20042;-73
2023/06/24 01:13:57;;;;;;;10.52;8.10;;;16.10;99.90;;;;;;5012075;28;20100;-73
2023/06/24 01:16:49;;;;;;;10.00;7.88;;;16.10;99.90;;;;;;5011833;28;20042;-73
2023/06/24 01:19:33;;;;;;;11.82;8.20;;;16.10;99.90;;;;;;5010598;28;20561;-72
2023/06/24 01:22:27;;;;;;;10.80;8.20;;;16.10;99.90;;;;;;5012154;28;20521;-73
2023/06/24 01:24:56;;;;;;;9.85;7.60;;;16.00;99.90;;;;;;5011052;28;20129;-72
2023/06/24 01:27:59;;;;;;;12.85;9.05;;;16.10;99.90;;;;;;5010246;28;20433;-73
2023/06/24 01:30:40;;;;;;;13.23;8.88;;;16.10;99.90;;;;;;4999656;28;20054;-72
2023/06/24 01:33:12;;;;;;;10.95;7.88;;;16.10;99.90;;;;;;5011178;28;20042;-73
2023/06/24 01:35:41;;;;;;;11.95;7.80;;;16.00;99.90;;;;;;5011287;28;20030;-74
2023/06/24 01:38:20;;;;;;;12.77;7.78;;;16.00;99.90;;;;;;5012365;28;20085;-74
2023/06/24 01:40:48;;;;;;;12.50;7.70;;;16.00;99.90;;;;;;5010205;28;20042;-74
2023/06/24 01:43:16;;;;;;;12.80;7.88;;;16.00;99.90;;;;;;5011194;28;20054;-74
2023/06/24 01:45:45;;;;;;;11.65;8.10;;;16.10;99.90;;;;;;5011691;28;20050;-73
2023/06/24 01:48:16;;;;;;;11.30;7.60;;;16.10;99.90;;;;;;5010002;28;20054;-74
2023/06/24 01:51:10;;;;;;;12.35;8.65;;;16.10;99.90;;;;;;5011859;28;20053;-73
2023/06/24 01:53:44;;;;;;;13.25;8.80;;;16.10;99.90;;;;;;5011276;28;20042;-74
2023/06/24 01:56:14;;;;;;;11.57;8.30;;;16.10;99.90;;;;;;5014290;28;20053;-75
2023/06/24 01:58:42;;;;;;;12.40;8.30;;;16.10;99.90;;;;;;5015000;28;20042;-74
2023/06/24 02:01:08;;;;;;;11.48;8.45;;;16.10;99.90;;;;;;5013571;28;20417;-73
2023/06/24 02:03:35;;;;;;;11.50;8.27;;;16.10;99.90;;;;;;5015431;28;20045;-74
2023/06/24 02:06:06;;;;;;;12.95;8.52;;;16.10;99.90;;;;;;5013852;28;20405;-74
2023/06/24 02:08:34;;;;;;;11.85;7.90;;;16.10;99.90;;;;;;5014572;28;20068;-74
2023/06/24 02:11:01;;;;;;;12.40;8.50;;;16.10;99.90;;;;;;5015328;28;20478;-74
2023/06/24 02:13:32;;;;;;;11.85;8.68;;;16.10;99.90;;;;;;5013989;28;20541;-74
2023/06/24 02:16:00;;;;;;;13.02;8.50;;;16.00;99.90;;;;;;5013132;28;20104;-74
2023/06/24 02:18:27;;;;;;;14.35;8.95;;;16.00;99.90;;;;;;5014032;28;20052;-74
2023/06/24 02:20:56;;;;;;;14.27;8.82;;;15.90;99.90;;;;;;5013653;28;20046;-73
2023/06/24 02:23:23;;;;;;;15.10;9.27;;;15.90;99.90;;;;;;5012987;28;20391;-73
2023/06/24 02:25:50;;;;;;;15.57;9.38;;;15.90;99.90;;;;;;5012257;28;20100;-73
2023/06/24 02:28:17;;;;;;;14.95;8.43;;;15.90;99.90;;;;;;5014829;28;20096;-74
2023/06/24 02:30:43;;;;;;;12.40;8.65;;;15.90;99.90;;;;;;5012706;28;20045;-74
2023/06/24 02:33:11;;;;;;;13.98;9.45;;;15.90;99.90;;;;;;5015237;28;20053;-74
2023/06/24 02:35:37;;;;;;;15.13;9.88;;;15.90;99.90;;;;;;5014412;28;20046;-73
2023/06/24 02:38:03;;;;;;;12.43;8.85;;;15.80;99.90;;;;;;5013053;28;20595;-74
2023/06/24 02:40:32;;;;;;;17.15;9.45;;;15.80;99.90;;;;;;5013216;28;20046;-74
2023/06/24 02:43:00;;;;;;;14.30;9.07;;;15.80;99.90;;;;;;5012276;28;20038;-73
2023/06/24 02:45:27;;;;;;;12.63;8.75;;;15.80;99.90;;;;;;5014801;28;20049;-74
2023/06/24 02:47:55;;;;;;;16.08;9.35;;;15.80;99.90;;;;;;5014550;28;20046;-74
2023/06/24 02:50:22;;;;;;;13.20;8.80;;;15.70;99.90;;;;;;5013975;28;20042;-72
2023/06/24 02:52:48;;;;;;;13.07;9.27;;;15.70;99.90;;;;;;5014125;28;20077;-72
2023/06/24 02:55:17;;;;;;;14.30;9.27;;;15.70;99.90;;;;;;5012977;28;20505;-72
2023/06/24 02:57:47;;;;;;;15.40;10.07;;;15.70;99.90;;;;;;5013544;28;20052;-72
2023/06/24 03:00:14;;;;;;;14.90;10.13;;;15.80;99.90;;;;;;5014319;28;20096;-72
2023/06/24 03:02:42;;;;;;;14.27;9.38;;;15.70;99.90;;;;;;5013758;28;20069;-72
2023/06/24 03:05:09;;;;;;;16.58;9.63;;;15.70;99.90;;;;;;5013170;28;20091;-72
2023/06/24 03:07:37;;;;;;;13.77;9.80;;;15.70;99.90;;;;;;5013507;28;20589;-72
2023/06/24 03:10:05;;;;;;;13.45;9.65;;;15.70;99.90;;;;;;5012854;28;20038;-72
2023/06/24 03:12:31;;;;;;;14.60;9.02;;;15.70;99.90;;;;;;5011966;28;20050;-72
2023/06/24 03:14:57;;;;;;;12.50;9.18;;;15.70;99.90;;;;;;5013573;28;20402;-72
2023/06/24 03:17:27;;;;;;;13.18;9.38;;;15.60;99.90;;;;;;5012678;28;20042;-72
2023/06/24 03:19:52;;;;;;;13.13;9.18;;;15.60;99.90;;;;;;5011306;28;20042;-72
2023/06/24 03:22:18;;;;;;;14.63;9.77;;;15.60;99.90;;;;;;5013766;28;20057;-72
2023/06/24 03:24:46;;;;;;;13.77;9.10;;;15.60;99.90;;;;;;5012126;28;20042;-72
2023/06/24 03:27:12;;;;;;;13.45;9.27;;;15.60;99.90;;;;;;5012937;28;20050;-72
2023/06/24 03:29:44;;;;;;;12.80;9.50;;;15.60;99.90;;;;;;5012194;28;20666;-72
2023/06/24 03:32:10;;;;;;;13.63;9.38;;;15.70;99.90;;;;;;5011413;28;20046;-72
2023/06/24 03:34:36;;;;;;;13.63;9.63;;;15.60;99.90;;;;;;5012026;28;20129;-72
2023/06/24 03:37:04;;;;;;;14.63;9.35;;;15.60;99.90;;;;;;5013657;28;20127;-72
2023/06/24 03:39:30;;;;;;;14.18;8.98;;;15.60;99.90;;;;;;5011914;28;20581;-72
2023/06/24 03:41:55;;;;;;;13.02;9.52;;;15.70;99.90;;;;;;5011836;28;20050;-72
2023/06/24 03:44:21;;;;;;;14.18;9.70;;;15.60;99.90;;;;;;5013833;28;20038;-72
2023/06/24 03:46:47;;;;;;;14.07;10.35;;;15.60;99.90;;;;;;5010911;28;20046;-72
2023/06/24 03:49:12;;;;;;;13.90;9.48;;;15.60;99.90;;;;;;5012042;28;20055;-73
2023/06/24 03:51:38;;;;;;;15.60;9.60;;;15.70;99.90;;;;;;5013123;28;20068;-72
2023/06/24 03:54:04;;;;;;;17.58;9.85;;;15.70;99.90;;;;;;5012935;28;20054;-72
2023/06/24 03:56:30;;;;;;;14.88;9.82;;;15.70;99.90;;;;;;5013112;28;20044;-72
2023/06/24 03:58:55;;;;;;;16.15;9.35;;;15.70;99.90;;;;;;5012622;28;20044;-72
2023/06/24 04:01:21;;;;;;;14.63;10.30;;;15.80;99.90;;;;;;5011096;28;20073;-72
2023/06/24 04:03:47;;;;;;;15.02;10.05;;;15.80;99.90;;;;;;5011557;28;20073;-72
2023/06/24 04:06:13;;;;;;;14.98;9.80;;;15.90;99.90;;;;;;5013325;28;20072;-72
2023/06/24 04:08:42;;;;;;;15.88;10.70;;;15.90;99.90;;;;;;5009178;28;20057;-73
2023/06/24 04:11:11;;;;;;;14.75;10.10;;;15.90;99.90;;;;;;5011079;28;20507;-73
2023/06/24 04:13:37;;;;;;;15.68;10.52;;;15.90;99.90;;;;;;5010678;28;20050;-74
2023/06/24 04:16:06;;;;;;;17.00;10.63;;;16.00;99.90;;;;;;5010695;28;20045;-72
2023/06/24 04:18:32;;;;;;;15.80;10.90;;;16.00;99.90;;;;;;5011455;28;20164;-73
2023/06/24 04:21:00;;;;;;;15.93;10.68;;;16.10;99.90;;;;;;5013112;28;20045;-73
2023/06/24 04:23:26;;;;;;;16.65;10.38;;;16.10;99.90;;;;;;5010730;28;20064;-72
2023/06/24 04:25:52;;;;;;;14.55;10.45;;;16.10;99.90;;;;;;5011065;28;20136;-73
2023/06/24 04:28:18;;;;;;;16.58;10.65;;;16.20;99.90;;;;;;5011931;28;20050;-72
2023/06/24 04:30:43;;;;;;;15.93;10.60;;;16.20;99.90;;;;;;5010013;28;20077;-73
2023/06/24 04:33:09;;;;;;;16.05;10.48;;;16.30;99.90;;;;;;5011133;28;20042;-72
2023/06/24 04:35:35;;;;;;;14.90;11.35;;;16.30;99.90;;;;;;5009715;28;20030;-73
2023/06/24 04:38:00;;;;;;;14.30;10.20;;;16.30;99.90;;;;;;5012435;28;20042;-73
2023/06/24 04:40:26;;;;;;;17.30;10.52;;;16.30;99.90;;;;;;5011395;28;20068;-72
2023/06/24 04:42:52;;;;;;;17.40;10.35;;;16.30;99.90;;;;;;5009492;28;20383;-73
2023/06/24 04:45:18;;;;;;;19.48;11.60;;;16.40;99.90;;;;;;5010737;28;20038;-72
2023/06/24 04:47:44;;;;;;;17.10;10.43;;;16.40;99.90;;;;;;5009602;28;20049;-73
2023/06/24 04:50:10;;;;;;;16.35;11.02;;;16.50;99.90;;;;;;5010955;28;20046;-74
2023/06/24 04:52:39;;;;;;;14.48;10.18;;;16.50;99.90;;;;;;5011060;28;20536;-74
2023/06/24 04:55:07;;;;;;;16.55;10.10;;;16.60;99.90;;;;;;5012716;28;20038;-74
2023/06/24 04:57:36;;;;;;;16.50;10.63;;;16.70;99.90;;;;;;5010439;28;20136;-73
2023/06/24 05:00:02;;;;;;;17.00;10.70;;;16.80;99.90;;;;;;5012558;28;20464;-74
2023/06/24 05:02:28;;;;;;;15.95;11.50;;;16.80;99.90;;;;;;5012335;28;20053;-71
2023/06/24 05:04:54;;;;;;;15.32;11.27;;;16.90;99.90;;;;;;5011697;28;20038;-72
2023/06/24 05:07:39;;;;;;;19.83;10.70;;;17.00;99.90;;;;;;5011924;28;20050;-72
2023/06/24 05:10:05;;;;;;;15.50;10.63;;;17.10;99.90;;;;;;5010415;28;20045;-71
2023/06/24 05:12:31;;;;;;;13.60;10.07;;;17.20;99.90;;;;;;5010686;28;20048;-70
2023/06/24 05:14:57;;;;;;;14.98;11.02;;;17.40;99.90;;;;;;5011512;28;20476;-71
2023/06/24 05:17:23;;;;;;;17.25;11.27;;;17.40;99.90;;;;;;5012360;28;20038;-72
2023/06/24 05:19:49;;;;;;;14.73;10.60;;;17.60;99.90;;;;;;5011618;28;20042;-71
2023/06/24 05:22:15;;;;;;;17.27;11.40;;;17.80;99.90;;;;;;5012918;28;20379;-71
2023/06/24 05:24:41;;;;;;;14.60;11.38;;;17.90;99.90;;;;;;5009809;28;20054;-72
2023/06/24 05:27:07;;;;;;;16.92;10.98;;;18.10;99.90;;;;;;5012193;28;20053;-71
2023/06/24 05:29:34;;;;;;;15.15;10.52;;;18.20;99.90;;;;;;5013921;28;20053;-71
2023/06/24 05:32:03;;;;;;;14.80;10.45;;;18.40;99.90;;;;;;5015018;28;20052;-72
2023/06/24 05:34:30;;;;;;;13.48;10.68;;;18.50;99.90;;;;;;5013058;28;20050;-72
2023/06/24 05:36:56;;;;;;;14.63;10.25;;;18.60;99.90;;;;;;5014347;28;20046;-71
2023/06/24 05:39:21;;;;;;;14.30;10.30;;;18.70;99.90;;;;;;5013912;28;20042;-71
2023/06/24 05:41:50;;;;;;;15.75;9.80;;;18.90;99.90;;;;;;5015666;28;20038;-71
2023/06/24 05:44:17;;;;;;;14.75;10.77;;;19.00;99.90;;;;;;5015867;28;20065;-72
2023/06/24 05:46:44;;;;;;;15.23;10.98;;;19.00;99.90;;;;;;5014944;28;20042;-71
2023/06/24 05:49:13;;;;;;;14.55;10.13;;;19.20;99.90;;;;;;5015176;28;20053;-71
2023/06/24 05:51:41;;;;;;;14.77;10.27;;;19.20;99.90;;;;;;5014535;28;20045;-73
2023/06/24 05:54:10;;;;;;;14.18;9.77;;;19.40;99.90;;;;;;5013389;28;20517;-74
2023/06/24 05:56:36;;;;;;;13.07;10.38;;;19.40;99.90;;;;;;5011352;28;20078;-70
2023/06/24 05:59:02;;;;;;;15.35;10.27;;;19.60;99.90;;;;;;5012587;28;20045;-71
2023/06/24 06:01:27;;;;;;;13.02;10.13;;;19.70;99.90;;;;;;5013089;28;20038;-71
2023/06/24 06:03:53;;;;;;;14.90;9.93;;;19.70;99.90;;;;;;5013091;28;20046;-70
2023/06/24 06:06:22;;;;;;;14.73;10.10;;;19.90;99.90;;;;;;5012783;28;20041;-71
2023/06/24 06:08:48;;;;;;;12.50;9.45;;;20.00;99.90;;;;;;5013317;28;20053;-73
2023/06/24 06:11:13;;;;;;;14.02;9.57;;;20.00;99.90;;;;;;5014863;28;20069;-73
2023/06/24 06:13:39;;;;;;;14.45;9.52;;;20.00;99.90;;;;;;5012610;28;20042;-73
2023/06/24 06:16:11;;;;;;;15.20;9.70;;;20.10;99.90;;;;;;5009714;28;20070;-73
2023/06/24 06:18:37;;;;;;;14.77;8.98;;;20.10;99.90;;;;;;5013083;28;20054;-73
2023/06/24 06:21:02;;;;;;;14.32;9.68;;;20.20;99.90;;;;;;5012215;28;20045;-73
2023/06/24 06:23:28;;;;;;;13.25;8.95;;;20.40;99.90;;;;;;5014006;28;20054;-74
2023/06/24 06:25:54;;;;;;;13.30;9.07;;;20.50;99.90;;;;;;5014647;28;20128;-72
2023/06/24 06:28:20;;;;;;;12.98;9.45;;;20.60;99.90;;;;;;5014186;28;20159;-72
2023/06/24 06:30:46;;;;;;;12.18;8.65;;;20.70;99.90;;;;;;5014988;28;20492;-71
2023/06/24 06:33:12;;;;;;;12.70;8.75;;;20.70;99.90;;;;;;5014983;28;20410;-73
2023/06/24 06:35:37;;;;;;;12.95;8.05;;;20.80;99.90;;;;;;5013808;28;20050;-72
2023/06/24 06:38:05;;;;;;;9.63;7.35;;;21.00;99.90;;;;;;5013800;28;20100;-72
2023/06/24 06:40:30;;;;;;;9.20;6.90;;;21.00;99.90;;;;;;5012897;28;20446;-72
2023/06/24 06:42:56;;;;;;;12.35;6.55;;;21.10;99.90;;;;;;5012509;28;20551;-71
2023/06/24 06:45:22;;;;;;;10.50;6.45;;;21.20;99.90;;;;;;5013704;28;20045;-71
2023/06/24 06:47:49;;;;;;;9.18;5.90;;;21.30;99.90;;;;;;5012641;28;20044;-71
2023/06/24 06:50:15;;;;;;;11.10;6.32;;;21.40;99.90;;;;;;5012388;28;20454;-71
2023/06/24 06:52:44;;;;;;;8.60;5.97;;;21.50;99.90;;;;;;5014590;28;20042;-71
2023/06/24 06:55:10;;;;;;;10.27;6.05;;;21.60;99.90;;;;;;5013541;28;20045;-71
2023/06/24 06:57:36;;;;;;;8.27;6.03;;;21.60;99.90;;;;;;5013632;28;20410;-71
2023/06/24 07:00:02;;;;;;;9.02;6.25;;;21.60;99.90;;;;;;5014519;28;20477;-71
2023/06/24 07:02:28;;;;;;;9.15;5.82;;;21.70;99.90;;;;;;5013402;28;20104;-71
2023/06/24 07:04:53;;;;;;;8.38;5.22;;;21.70;99.90;;;;;;5013066;28;20462;-70
2023/06/24 07:07:22;;;;;;;6.97;5.10;;;21.70;99.90;;;;;;5014513;28;20045;-71
2023/06/24 07:09:47;;;;;;;8.25;4.70;;;21.70;99.90;;;;;;5014201;28;20042;-75
2023/06/24 07:12:13;;;;;;;7.07;5.03;;;21.70;99.90;;;;;;5011826;28;20053;-76
2023/06/24 07:14:39;;;;;;;8.52;5.20;;;21.80;99.90;;;;;;5013021;28;20046;-76
2023/06/24 07:17:08;;;;;;;9.27;4.93;;;21.80;99.90;;;;;;5013764;28;20478;-76
2023/06/24 07:19:33;;;;;;;8.52;4.85;;;21.80;99.90;;;;;;5011808;28;20132;-77
2023/06/24 07:21:59;;;;;;;8.18;5.22;;;21.80;99.90;;;;;;5012430;28;20058;-77
2023/06/24 07:24:25;;;;;;;7.95;5.32;;;21.90;99.90;;;;;;5013645;28;20501;-75
2023/06/24 07:26:51;;;;;;;8.60;4.80;;;21.90;99.90;;;;;;5012645;28;20081;-73
2023/06/24 07:29:20;;;;;;;8.77;5.13;;;22.00;99.90;;;;;;5013995;28;20038;-74
2023/06/24 07:31:48;;;;;;;9.25;5.38;;;22.10;99.90;;;;;;5012853;28;20042;-81
2023/06/24 07:34:14;;;;;;;8.10;5.22;;;22.40;99.90;;;;;;5012542;28;20046;-78
2023/06/24 07:36:39;;;;;;;9.05;4.95;;;22.30;99.90;;;;;;5011610;28;20042;-75
2023/06/24 07:39:05;;;;;;;6.38;4.80;;;22.40;99.90;;;;;;5013328;28;20092;-75
2023/06/24 07:41:32;;;;;;;7.47;5.25;;;22.70;99.90;;;;;;5014031;28;20405;-75
2023/06/24 07:43:57;;;;;;;7.07;4.90;;;22.80;99.90;;;;;;5000773;28;20088;-76
2023/06/24 07:46:23;;;;;;;7.05;4.88;;;22.80;99.90;;;;;;5012514;28;20074;-77
2023/06/24 07:48:49;;;;;;;9.23;4.88;;;22.80;99.90;;;;;;5011421;28;20108;-76
2023/06/24 07:51:20;;;;;;;9.07;5.30;;;23.00;99.90;;;;;;5012787;28;20116;-76
2023/06/24 07:53:46;;;;;;;7.43;4.72;;;23.20;99.90;;;;;;5012738;28;20081;-76
2023/06/24 07:56:12;;;;;;;8.20;5.30;;;23.40;99.90;;;;;;5013574;28;20080;-76
2023/06/24 07:58:41;;;;;;;7.60;5.25;;;23.50;99.90;;;;;;5013040;28;20073;-76
2023/06/24 08:01:06;;;;;;;7.30;4.82;;;23.60;99.90;;;;;;5011319;28;20045;-76
2023/06/24 08:03:33;;;;;;;9.98;5.45;;;23.80;99.90;;;;;;5011084;28;20045;-75
2023/06/24 08:06:02;;;;;;;10.15;5.40;;;23.80;99.90;;;;;;5012457;28;20133;-75
2023/06/24 08:08:31;;;;;;;8.13;5.65;;;23.90;99.90;;;;;;5012624;28;20041;-75
2023/06/24 08:10:57;;;;;;;7.50;5.35;;;24.10;99.90;;;;;;5012105;28;20049;-76
2023/06/24 08:13:23;;;;;;;9.20;5.20;;;24.30;99.90;;;;;;5013008;28;20046;-76
2023/06/24 08:15:49;;;;;;;8.32;5.90;;;24.50;99.90;;;;;;5011167;28;20049;-77
2023/06/24 08:18:14;;;;;;;9.48;5.82;;;24.70;99.90;;;;;;5012572;28;20399;-76
2023/06/24 08:20:40;;;;;;;7.82;5.35;;;24.90;99.90;;;;;;5010783;28;20030;-76
2023/06/24 08:23:06;;;;;;;9.48;6.03;;;24.90;99.90;;;;;;5011593;28;20079;-78
2023/06/24 08:25:32;;;;;;;8.57;5.30;;;25.10;99.90;;;;;;5011777;28;20050;-78
2023/06/24 08:27:57;;;;;;;11.90;5.53;;;25.80;99.90;;;;;;5011614;28;20406;-78
2023/06/24 08:30:24;;;;;;;7.28;5.28;;;25.90;99.90;;;;;;5011379;28;20058;-80
2023/06/24 08:32:50;;;;;;;8.85;5.47;;;26.20;99.90;;;;;;5012598;28;20490;-84
2023/06/24 08:35:16;;;;;;;14.65;6.65;;;26.80;99.80;;;;;;5010824;28;20040;-81
2023/06/24 08:37:45;;;;;;;8.30;5.97;;;27.50;98.30;;;;;;5010865;28;20045;-79
2023/06/24 08:40:11;;;;;;;9.35;5.70;;;28.30;97.20;;;;;;5011259;28;20406;-79
2023/06/24 08:42:37;;;;;;;8.90;5.65;;;28.50;97.30;;;;;;5010008;28;20053;-77
2023/06/24 08:45:03;;;;;;;10.93;6.82;;;29.00;96.30;;;;;;5011514;28;20049;-74
2023/06/24 08:47:30;;;;;;;8.40;5.68;;;29.20;95.90;;;;;;5011255;28;20140;-77
2023/06/24 08:50:03;;;;;;;7.68;5.15;;;29.40;95.20;;;;;;5010008;28;20054;-73
2023/06/24 08:52:31;;;;;;;8.65;5.32;;;29.90;95.00;;;;;;4997457;28;20045;-76
2023/06/24 08:55:00;;;;;;;8.85;5.45;;;29.90;94.10;;;;;;5010396;28;20052;-75
2023/06/24 08:57:26;;;;;;;7.97;5.60;;;30.10;94.10;;;;;;5010538;28;20069;-76
2023/06/24 08:59:53;;;;;;;9.70;5.10;;;30.20;93.30;;;;;;5012419;28;20054;-72
2023/06/24 09:02:19;;;;;;;8.73;5.45;;;30.50;94.10;;;;;;5011665;28;20113;-72
2023/06/24 09:04:45;;;;;;;7.85;5.40;;;30.70;93.90;;;;;;5015428;28;20509;-74
2023/06/24 09:07:11;;;;;;;7.13;4.68;;;30.60;94.10;;;;;;5015656;28;20046;-73
2023/06/24 09:09:44;;;;;;;6.95;4.90;;;30.50;92.90;;;;;;5015610;28;20455;-74
2023/06/24 09:12:12;;;;;;;7.90;5.30;;;30.70;92.40;;;;;;5014190;28;20478;-75
2023/06/24 09:14:40;;;;;;;8.43;5.00;;;30.80;92.40;;;;;;5015617;28;20726;-73
2023/06/24 09:17:06;;;;;;;7.13;4.55;;;31.30;92.30;;;;;;5013472;28;20048;-75
2023/06/24 09:19:36;;;;;;;9.60;4.97;;;31.30;92.00;;;;;;5014424;28;20496;-72
2023/06/24 09:22:03;;;;;;;7.88;4.95;;;31.50;91.20;;;;;;5013142;28;20060;-71
2023/06/24 09:24:37;;;;;;;10.80;4.70;;;31.50;90.50;;;;;;5012971;28;20458;-70
2023/06/24 09:27:06;;;;;;;6.20;4.43;;;31.60;90.40;;;;;;5014273;28;20518;-73
2023/06/24 09:29:34;;;;;;;7.43;4.60;;;31.50;90.50;;;;;;5013682;28;20045;-73
2023/06/24 09:32:03;;;;;;;8.35;5.00;;;31.40;90.10;;;;;;5011688;28;20041;-71
2023/06/24 09:34:29;;;;;;;5.32;3.95;;;31.50;90.10;;;;;;5011743;28;20121;-71
2023/06/24 09:36:57;;;;;;;6.57;4.25;;;31.40;90.70;;;;;;5013225;28;20132;-73
2023/06/24 09:39:29;;;;;;;7.20;5.10;;;31.40;90.20;;;;;;5012814;28;20053;-73
2023/06/24 09:41:55;;;;;;;7.90;5.03;;;31.10;91.00;;;;;;5013114;28;20481;-72
2023/06/24 09:44:21;;;;;;;7.25;4.97;;;31.00;91.80;;;;;;5017384;28;20448;-71
2023/06/24 09:46:47;;;;;;;7.45;5.35;;;31.30;91.90;;;;;;5011782;28;20045;-73
2023/06/24 09:49:13;;;;;;;7.85;5.72;;;31.00;92.00;;;;;;5012988;28;20049;-71
2023/06/24 09:51:42;;;;;;;8.20;5.60;;;31.40;91.70;;;;;;5014168;28;20037;-73
2023/06/24 09:54:10;;;;;;;8.57;5.28;;;31.30;92.70;;;;;;5012552;28;20765;-72
2023/06/24 09:56:39;;;;;;;11.05;5.97;;;31.30;92.50;;;;;;5010376;28;20046;-72
2023/06/24 09:59:06;;;;;;;9.68;6.32;;;31.50;91.80;;;;;;5012470;28;20049;-73
2023/06/24 10:01:52;;;;;;;9.65;6.15;;;31.30;91.80;;;;;;5012402;28;20053;-73
2023/06/24 10:04:20;;;;;;;7.65;5.28;;;31.30;92.30;;;;;;5012688;28;20072;-72
2023/06/24 10:06:49;;;;;;;104.97;18.23;;;31.70;91.90;;;;;;5013152;28;20057;-71
2023/06/24 10:09:17;;;;;;;10.60;6.05;;;31.70;91.50;;;;;;5015311;28;20092;-70
2023/06/24 10:11:45;;;;;;;224.93;32.40;;;31.70;91.40;;;;;;5015409;28;20484;-70
2023/06/24 10:14:11;;;;;;;9.95;5.80;;;31.90;90.90;;;;;;5011874;28;20046;-70
2023/06/24 10:16:41;;;;;;;16.63;6.68;;;32.00;90.70;;;;;;5014465;28;20038;-70
2023/06/24 10:19:06;;;;;;;9.93;4.93;;;32.00;91.20;;;;;;5014358;28;20494;-71
2023/06/24 10:21:51;;;;;;;9.25;4.47;;;32.00;91.40;;;;;;5012806;28;20038;-71
2023/06/24 10:24:39;;;;;;;7.80;4.72;;;32.50;90.60;;;;;;5012961;28;20127;-71
2023/06/24 10:27:07;;;;;;;7.55;4.53;;;32.70;88.60;;;;;;5014542;28;20050;-70
2023/06/24 10:29:44;;;;;;;7.75;4.63;;;32.60;88.70;;;;;;5018127;28;20493;-72
2023/06/24 10:32:10;;;;;;;5.18;3.45;;;32.10;88.20;;;;;;5020412;28;20131;-72
2023/06/24 10:34:43;;;;;;;7.25;4.35;;;32.10;87.50;;;;;;5006828;28;20434;-72
2023/06/24 10:37:24;;;;;;;8.73;5.28;;;32.20;88.60;;;;;;5013436;28;20056;-71
2023/06/24 10:40:00;;;;;;;8.80;4.20;;;32.00;89.70;;;;;;5016081;28;20113;-70
2023/06/24 10:42:43;;;;;;;8.40;4.70;;;32.20;86.10;;;;;;5011948;28;20065;-79
2023/06/24 10:45:08;;;;;;;12.13;5.00;;;31.60;87.40;;;;;;5014907;28;20042;-77
2023/06/24 10:47:36;;;;;;;7.32;4.50;;;31.50;88.50;;;;;;5009122;28;20416;-77
2023/06/24 10:50:02;;;;;;;7.63;4.38;;;31.60;88.20;;;;;;5011278;28;20042;-78
2023/06/24 10:52:31;;;;;;;7.85;5.28;;;31.70;88.20;;;;;;5027295;28;20042;-78
2023/06/24 10:54:58;;;;;;;7.20;4.80;;;31.90;88.80;;;;;;5013064;28;20966;-77
2023/06/24 10:57:27;;;;;;;9.15;4.60;;;31.50;88.80;;;;;;5014752;28;20478;-77
2023/06/24 10:59:55;;;;;;;8.23;4.15;;;31.50;88.80;;;;;;5012599;28;20133;-76
2023/06/24 11:02:22;;;;;;;8.60;4.45;;;31.50;87.80;;;;;;5016621;28;20048;-79
2023/06/24 11:04:55;;;;;;;7.43;3.90;;;31.60;88.90;;;;;;5021433;28;20049;-78
2023/06/24 11:07:30;;;;;;;7.55;4.47;;;31.70;89.30;;;;;;5008915;28;20050;-80
2023/06/24 11:09:57;;;;;;;6.70;4.07;;;32.10;88.50;;;;;;5008752;28;20045;-79
2023/06/24 11:12:31;;;;;;;7.78;3.90;;;32.00;87.80;;;;;;5024612;28;20038;-79
2023/06/24 11:14:58;;;;;;;6.53;4.15;;;32.00;86.50;;;;;;5011144;28;20057;-79
2023/06/24 11:17:25;;;;;;;6.55;4.10;;;31.70;87.10;;;;;;5008941;28;20041;-80
2023/06/24 11:20:01;;;;;;;5.60;4.10;;;31.70;89.50;;;;;;5011784;28;20037;-82
2023/06/24 11:22:27;;;;;;;6.10;3.40;;;31.90;88.60;;;;;;5009099;28;20118;-72
2023/06/24 11:24:54;;;;;;;7.03;4.15;;;32.20;87.20;;;;;;5010636;28;20057;-72
2023/06/24 11:27:28;;;;;;;8.35;3.97;;;32.10;87.90;;;;;;5010483;28;20077;-71
2023/06/24 11:29:55;;;;;;;6.85;4.20;;;32.40;87.30;;;;;;5011452;28;20084;-71
2023/06/24 11:32:21;;;;;;;7.68;4.80;;;32.20;86.60;;;;;;5009652;28;20085;-72
2023/06/24 11:34:47;;;;;;;5.43;3.72;;;32.00;86.90;;;;;;5010505;28;20108;-71
2023/06/24 11:37:15;;;;;;;6.63;3.90;;;32.00;87.60;;;;;;5010560;28;20124;-73
2023/06/24 11:39:41;;;;;;;6.45;3.80;;;31.80;86.00;;;;;;5010650;28;20089;-72
2023/06/24 11:42:09;;;;;;;7.57;4.47;;;31.60;87.00;;;;;;5009735;28;20054;-72
2023/06/24 11:44:35;;;;;;;6.07;3.50;;;31.80;84.90;;;;;;5015076;28;20104;-71
2023/06/24 11:47:08;;;;;;;5.60;3.70;;;31.80;86.40;;;;;;5016050;28;20050;-70
2023/06/24 11:49:56;;;;;;;5.25;3.83;;;31.50;85.50;;;;;;5021563;28;20049;-70
2023/06/24 11:52:48;;;;;;;7.15;3.90;;;31.50;85.60;;;;;;5010670;28;20053;-70
2023/06/24 11:55:18;;;;;;;5.82;3.90;;;31.50;86.70;;;;;;5025022;28;20093;-70
2023/06/24 11:58:07;;;;;;;5.57;3.63;;;31.50;85.70;;;;;;5010517;28;20060;-70
2023/06/24 12:00:36;;;;;;;6.75;3.40;;;31.40;87.20;;;;;;5013340;28;20042;-70
2023/06/24 12:03:04;;;;;;;7.75;4.15;;;31.30;86.00;;;;;;5011593;28;20497;-70
2023/06/24 12:05:31;;;;;;;5.55;3.20;;;31.30;86.40;;;;;;5011496;28;20073;-70
2023/06/24 12:08:00;;;;;;;7.55;4.35;;;31.50;86.90;;;;;;4999492;28;20048;-69
2023/06/24 12:10:26;;;;;;;5.57;3.47;;;31.70;86.70;;;;;;5012885;28;20145;-70
2023/06/24 12:12:52;;;;;;;5.72;2.70;;;31.70;86.00;;;;;;5008301;28;20049;-70
2023/06/24 12:15:21;;;;;;;6.13;3.25;;;31.80;85.60;;;;;;5019374;28;20041;-70
2023/06/24 12:17:49;;;;;;;5.93;3.90;;;31.80;85.00;;;;;;5010585;28;20038;-73
2023/06/24 12:20:17;;;;;;;5.32;3.05;;;32.00;85.10;;;;;;5023388;28;20057;-70
2023/06/24 12:22:42;;;;;;;5.65;3.58;;;31.90;85.00;;;;;;5015381;28;20061;-70
2023/06/24 12:25:09;;;;;;;5.88;3.47;;;31.80;86.40;;;;;;5008065;28;20619;-71
2023/06/24 12:27:38;;;;;;;7.10;4.07;;;31.70;85.70;;;;;;5009163;28;20042;-71
2023/06/24 12:30:04;;;;;;;7.00;4.20;;;31.70;85.80;;;;;;5010172;28;20484;-70
2023/06/24 12:32:30;;;;;;;4.93;3.63;;;31.70;87.30;;;;;;5009676;28;20038;-70
2023/06/24 12:35:03;;;;;;;4.95;3.08;;;31.70;86.50;;;;;;5010194;28;20042;-71
2023/06/24 12:37:33;;;;;;;8.10;3.20;;;32.00;87.00;;;;;;5011689;28;20439;-70
2023/06/24 12:40:00;;;;;;;5.28;2.83;;;32.10;86.40;;;;;;5011037;28;20052;-71
2023/06/24 12:42:27;;;;;;;5.78;3.35;;;32.10;85.20;;;;;;5011389;28;20070;-69
2023/06/24 12:44:56;;;;;;;7.20;3.97;;;31.80;85.30;;;;;;5009676;28;20548;-69
2023/06/24 12:47:22;;;;;;;5.57;3.63;;;31.50;85.50;;;;;;5010827;28;20089;-70